createdAt,value
2023-05-19T00:01:00.356Z,101339.06
2023-05-19T00:03:27.610Z,101333.84
2023-05-19T00:05:55.712Z,101322.78
2023-05-19T00:08:24.620Z,101328.66
2023-05-19T00:10:51.583Z,101326.72
2023-05-19T00:13:18.856Z,101323.22
2023-05-19T00:15:45.986Z,101329.41
2023-05-19T00:18:14.176Z,101328.34
2023-05-19T00:20:41.380Z,101325.94
2023-05-19T00:23:10.823Z,101323.31
2023-05-19T00:25:37.585Z,101319.56
2023-05-19T00:28:04.639Z,101327.63
2023-05-19T00:30:31.590Z,101320.31
2023-05-19T00:32:58.593Z,101329.16
2023-05-19T00:35:26.678Z,101329.69
2023-05-19T00:37:53.814Z,101324.22
2023-05-19T00:40:23.721Z,101333.63
2023-05-19T00:42:50.595Z,101327.91
2023-05-19T00:45:17.378Z,101329.00
2023-05-19T00:47:49.078Z,101334.63
2023-05-19T00:50:16.339Z,101327.78
2023-05-19T00:52:43.285Z,101327.50
2023-05-19T00:55:10.601Z,101326.63
2023-05-19T00:57:38.895Z,101322.00
2023-05-19T01:00:07.430Z,101326.53
2023-05-19T01:02:35.082Z,101325.94
2023-05-19T01:05:02.369Z,101325.88
2023-05-19T01:07:29.835Z,101311.22
2023-05-19T01:09:56.600Z,101317.09
2023-05-19T01:12:23.390Z,101311.97
2023-05-19T01:14:50.292Z,101311.66
2023-05-19T01:17:29.615Z,101303.53
2023-05-19T01:20:05.068Z,101306.41
2023-05-19T01:22:59.915Z,101298.47
2023-05-19T01:25:45.663Z,101301.13
2023-05-19T01:28:39.198Z,101294.78
2023-05-19T01:31:09.132Z,101302.22
2023-05-19T01:33:36.075Z,101306.44
2023-05-19T01:36:04.234Z,101304.94
2023-05-19T01:38:34.066Z,101310.88
2023-05-19T01:41:04.153Z,101314.63
2023-05-19T01:43:31.801Z,101301.75
2023-05-19T01:45:59.108Z,101300.63
2023-05-19T01:48:27.519Z,101302.72
2023-05-19T01:50:57.277Z,101302.66
2023-05-19T01:53:24.713Z,101305.34
2023-05-19T01:55:54.434Z,101307.47
2023-05-19T01:58:39.951Z,101306.91
2023-05-19T02:01:18.330Z,101312.19
2023-05-19T02:04:12.887Z,101315.84
2023-05-19T02:06:47.263Z,101323.00
2023-05-19T02:09:18.577Z,101317.88
2023-05-19T02:11:56.198Z,101327.78
2023-05-19T02:14:34.264Z,101321.03
2023-05-19T02:17:04.109Z,101323.72
2023-05-19T02:19:37.074Z,101326.66
2023-05-19T02:22:03.941Z,101321.44
2023-05-19T02:24:30.971Z,101326.31
2023-05-19T02:26:59.613Z,101325.28
2023-05-19T02:29:26.616Z,101325.03
2023-05-19T02:31:53.577Z,101325.84
2023-05-19T02:34:21.059Z,101326.56
2023-05-19T02:36:49.931Z,101325.16
2023-05-19T02:39:18.222Z,101331.03
2023-05-19T02:41:45.609Z,101329.16
2023-05-19T02:44:12.525Z,101321.59
2023-05-19T02:46:39.400Z,101317.50
2023-05-19T02:49:06.454Z,101328.72
2023-05-19T02:51:33.237Z,101327.13
2023-05-19T02:54:00.110Z,101314.75
2023-05-19T02:56:28.187Z,101306.59
2023-05-19T02:58:55.002Z,101315.03
2023-05-19T03:01:23.130Z,101311.78
2023-05-19T03:03:50.206Z,101304.69
2023-05-19T03:06:18.069Z,101315.88
2023-05-19T03:08:45.058Z,101313.94
2023-05-19T03:11:11.844Z,101320.00
2023-05-19T03:13:38.654Z,101321.31
2023-05-19T03:16:08.282Z,101308.13
2023-05-19T03:18:36.098Z,101316.19
2023-05-19T03:21:02.997Z,101322.13
2023-05-19T03:23:29.789Z,101323.75
2023-05-19T03:25:56.600Z,101309.28
2023-05-19T03:28:23.529Z,101319.53
2023-05-19T03:30:50.883Z,101316.63
2023-05-19T03:33:20.919Z,101317.69
2023-05-19T03:35:47.962Z,101318.25
2023-05-19T03:38:16.164Z,101332.94
2023-05-19T03:40:50.868Z,101327.72
2023-05-19T03:43:17.667Z,101328.44
2023-05-19T03:45:49.393Z,101330.88
2023-05-19T03:48:34.812Z,101339.97
2023-05-19T03:51:19.650Z,101333.81
2023-05-19T03:53:48.837Z,101340.81
2023-05-19T03:56:18.225Z,101334.16
2023-05-19T03:58:47.000Z,101341.47
2023-05-19T04:01:14.771Z,101342.06
2023-05-19T04:03:41.718Z,101338.06
2023-05-19T04:06:08.988Z,101331.91
2023-05-19T04:08:35.710Z,101332.47
2023-05-19T04:11:02.677Z,101338.41
2023-05-19T04:13:29.627Z,101346.69
2023-05-19T04:15:59.902Z,101333.06
2023-05-19T04:18:28.831Z,101337.63
2023-05-19T04:20:55.862Z,101342.97
2023-05-19T04:23:22.693Z,101348.56
2023-05-19T04:25:50.007Z,101346.47
2023-05-19T04:28:17.849Z,101340.03
2023-05-19T04:30:48.998Z,101345.97
2023-05-19T04:33:16.099Z,101344.94
2023-05-19T04:35:44.184Z,101346.25
2023-05-19T04:38:12.420Z,101350.75
2023-05-19T04:40:42.322Z,101352.41
2023-05-19T04:43:09.569Z,101353.22
2023-05-19T04:45:37.790Z,101359.97
2023-05-19T04:48:05.739Z,101362.66
2023-05-19T04:50:33.635Z,101353.56
2023-05-19T04:53:00.609Z,101363.34
2023-05-19T04:55:27.835Z,101355.03
2023-05-19T04:57:54.641Z,101351.66
2023-05-19T05:00:22.426Z,101354.41
2023-05-19T05:02:57.583Z,101353.22
2023-05-19T05:05:26.334Z,101357.94
2023-05-19T05:07:54.274Z,101352.69
2023-05-19T05:10:25.592Z,101350.88
2023-05-19T05:12:53.903Z,101351.00
2023-05-19T05:15:21.408Z,101350.25
2023-05-19T05:17:50.418Z,101351.97
2023-05-19T05:20:19.597Z,101356.38
2023-05-19T05:22:46.737Z,101351.41
2023-05-19T05:25:14.691Z,101351.38
2023-05-19T05:27:42.667Z,101354.13
2023-05-19T05:30:09.701Z,101357.47
2023-05-19T05:32:37.522Z,101349.00
2023-05-19T05:35:11.904Z,101350.22
2023-05-19T05:37:39.350Z,101348.72
2023-05-19T05:40:07.173Z,101355.63
2023-05-19T05:42:34.919Z,101345.69
2023-05-19T05:45:01.790Z,101342.50
2023-05-19T05:47:29.064Z,101348.56
2023-05-19T05:49:56.113Z,101347.91
2023-05-19T05:52:29.750Z,101335.63
2023-05-19T05:54:56.983Z,101343.56
2023-05-19T05:57:24.073Z,101338.59
2023-05-19T05:59:51.126Z,101348.50
2023-05-19T06:02:18.182Z,101341.09
2023-05-19T06:04:45.222Z,101339.31
2023-05-19T06:07:12.379Z,101338.94
2023-05-19T06:09:40.030Z,101342.91
2023-05-19T06:12:08.911Z,101334.44
2023-05-19T06:14:41.060Z,101335.09
2023-05-19T06:17:10.566Z,101334.28
2023-05-19T06:19:37.498Z,101336.53
2023-05-19T06:22:04.338Z,101337.03
2023-05-19T06:24:31.609Z,101345.84
2023-05-19T06:26:58.616Z,101337.97
2023-05-19T06:29:25.479Z,101329.28
2023-05-19T06:31:54.891Z,101333.31
2023-05-19T06:34:21.854Z,101342.19
2023-05-19T06:36:48.756Z,101347.13
2023-05-19T06:39:18.099Z,101341.72
2023-05-19T06:41:45.748Z,101340.03
2023-05-19T06:44:25.213Z,101334.03
2023-05-19T06:46:52.473Z,101335.88
2023-05-19T06:49:20.614Z,101341.13
2023-05-19T06:51:49.304Z,101340.00
2023-05-19T06:54:16.403Z,101333.47
2023-05-19T06:56:43.623Z,101336.13
2023-05-19T06:59:10.893Z,101333.69
2023-05-19T07:01:38.809Z,101337.22
2023-05-19T07:04:05.994Z,101331.53
2023-05-19T07:06:33.994Z,101329.69
2023-05-19T07:09:00.970Z,101332.97
2023-05-19T07:11:28.704Z,101329.78
2023-05-19T07:13:57.061Z,101327.16
2023-05-19T07:16:27.835Z,101327.19
2023-05-19T07:18:55.311Z,101321.59
2023-05-19T07:21:22.152Z,101319.16
2023-05-19T07:23:52.071Z,101319.72
2023-05-19T07:26:19.126Z,101309.00
2023-05-19T07:28:45.897Z,101297.44
2023-05-19T07:31:12.614Z,101301.50
2023-05-19T07:33:39.470Z,101293.41
2023-05-19T07:36:06.869Z,101292.16
2023-05-19T07:38:34.779Z,101295.94
2023-05-19T07:41:02.438Z,101294.03
2023-05-19T07:43:29.348Z,101288.34
2023-05-19T07:45:56.429Z,101286.16
2023-05-19T07:48:25.715Z,101286.28
2023-05-19T07:50:53.393Z,101282.38
2023-05-19T07:53:20.582Z,101278.84
2023-05-19T07:55:47.293Z,101278.53
2023-05-19T07:58:14.332Z,101278.38
2023-05-19T08:00:45.870Z,101272.84
2023-05-19T08:03:17.801Z,101276.59
2023-05-19T08:05:49.211Z,101277.44
2023-05-19T08:08:19.650Z,101272.16
2023-05-19T08:10:46.519Z,101277.81
2023-05-19T08:13:14.302Z,101275.47
2023-05-19T08:15:41.377Z,101265.47
2023-05-19T08:18:08.876Z,101262.59
2023-05-19T08:20:36.309Z,101266.41
2023-05-19T08:23:03.075Z,101252.28
2023-05-19T08:25:29.867Z,101251.31
2023-05-19T08:27:56.650Z,101241.63
2023-05-19T08:30:23.897Z,101241.13
2023-05-19T08:32:50.624Z,101235.91
2023-05-19T08:35:17.378Z,101233.94
2023-05-19T08:37:44.080Z,101235.28
2023-05-19T08:40:17.689Z,101225.38
2023-05-19T08:42:48.035Z,101217.50
2023-05-19T08:45:15.150Z,101212.22
2023-05-19T08:47:42.512Z,101210.78
2023-05-19T08:50:13.157Z,101207.88
2023-05-19T08:52:53.133Z,101203.69
2023-05-19T08:55:34.033Z,101198.28
2023-05-19T08:58:03.444Z,101199.66
2023-05-19T09:00:32.640Z,101199.50
2023-05-19T09:03:17.741Z,101179.34
2023-05-19T09:05:46.547Z,101175.75
2023-05-19T09:08:14.860Z,101170.97
2023-05-19T09:10:41.784Z,101166.91
2023-05-19T09:13:08.734Z,101172.97
2023-05-19T09:15:38.824Z,101176.28
2023-05-19T09:18:12.746Z,101167.25
2023-05-19T09:20:40.773Z,101162.31
2023-05-19T09:23:08.532Z,101161.97
2023-05-19T09:25:35.559Z,101157.97
2023-05-19T09:28:02.547Z,101155.06
2023-05-19T09:30:29.312Z,101146.59
2023-05-19T09:32:56.121Z,101154.25
2023-05-19T09:35:23.251Z,101148.66
2023-05-19T09:37:50.065Z,101144.03
2023-05-19T09:40:17.148Z,101144.81
2023-05-19T09:42:48.701Z,101146.03
2023-05-19T09:45:16.556Z,101142.38
2023-05-19T09:47:44.142Z,101129.94
2023-05-19T09:50:12.669Z,101129.56
2023-05-19T09:52:40.828Z,101135.47
2023-05-19T09:55:11.567Z,101135.09
2023-05-19T09:57:41.594Z,101139.69
2023-05-19T10:00:17.412Z,101126.41
2023-05-19T10:02:48.478Z,101132.25
2023-05-19T10:05:17.643Z,101134.41
2023-05-19T10:07:45.816Z,101135.56
2023-05-19T10:10:14.090Z,101131.59
2023-05-19T10:12:44.925Z,101124.28
2023-05-19T10:15:14.254Z,101124.25
2023-05-19T10:17:43.962Z,101123.72
2023-05-19T10:20:17.413Z,101114.81
2023-05-19T10:22:46.031Z,101117.84
2023-05-19T10:25:16.571Z,101115.56
2023-05-19T10:27:46.740Z,101115.28
2023-05-19T10:30:22.057Z,101112.50
2023-05-19T10:32:50.502Z,101111.06
2023-05-19T10:35:57.589Z,101099.28
2023-05-19T10:38:38.630Z,101099.00
2023-05-19T10:41:32.823Z,101108.84
2023-05-19T10:44:35.160Z,101099.31
2023-05-19T10:47:02.166Z,101093.19
2023-05-19T10:49:29.147Z,101094.47
2023-05-19T10:51:57.242Z,101096.06
2023-05-19T10:54:46.842Z,101100.94
2023-05-19T10:57:18.201Z,101088.34
2023-05-19T10:59:52.703Z,101100.28
2023-05-19T11:02:46.225Z,101090.56
2023-05-19T11:05:16.615Z,101082.38
2023-05-19T11:08:06.898Z,101078.09
2023-05-19T11:10:34.586Z,101086.31
2023-05-19T11:13:01.486Z,101075.00
2023-05-19T11:15:28.736Z,101080.22
2023-05-19T11:17:56.374Z,101066.06
2023-05-19T11:20:27.051Z,101065.69
2023-05-19T11:23:04.072Z,101070.22
2023-05-19T11:25:48.246Z,101059.41
2023-05-19T11:28:19.540Z,101055.63
2023-05-19T11:30:52.303Z,101054.09
2023-05-19T11:33:28.024Z,101052.13
2023-05-19T11:35:59.328Z,101042.34
2023-05-19T11:38:28.450Z,101065.91
2023-05-19T11:40:56.606Z,101059.38
2023-05-19T11:43:25.378Z,101066.56
2023-05-19T11:45:53.405Z,101052.06
2023-05-19T11:48:24.711Z,101059.16
2023-05-19T11:50:52.505Z,101053.59
2023-05-19T11:53:22.224Z,101064.38
2023-05-19T11:55:49.644Z,101069.97
2023-05-19T11:58:17.256Z,101056.19
2023-05-19T12:00:46.410Z,101067.28
2023-05-19T12:03:13.566Z,101060.09
2023-05-19T12:05:46.024Z,101070.19
2023-05-19T12:08:14.027Z,101061.97
2023-05-19T12:10:41.279Z,101065.34
2023-05-19T12:13:14.481Z,101066.69
2023-05-19T12:15:41.765Z,101070.50
2023-05-19T12:18:09.090Z,101057.56
2023-05-19T12:20:38.564Z,101063.50
2023-05-19T12:23:09.032Z,101072.78
2023-05-19T12:25:36.085Z,101078.16
2023-05-19T12:28:03.570Z,101065.47
2023-05-19T12:30:35.656Z,101066.34
2023-05-19T12:33:04.550Z,101057.13
2023-05-19T12:35:34.153Z,101060.78
2023-05-19T12:38:08.092Z,101056.63
2023-05-19T12:40:36.627Z,101061.53
2023-05-19T12:43:04.501Z,101051.22
2023-05-19T12:45:35.736Z,101057.56
2023-05-19T12:48:12.503Z,101051.44
2023-05-19T12:50:39.751Z,101050.56
2023-05-19T12:53:11.404Z,101049.56
2023-05-19T12:55:43.561Z,101047.25
2023-05-19T12:58:12.347Z,101043.31
2023-05-19T13:00:50.563Z,101057.69
2023-05-19T13:03:19.715Z,101054.94
2023-05-19T13:05:50.963Z,101043.28
2023-05-19T13:08:20.349Z,101055.44
2023-05-19T13:10:49.188Z,101064.13
2023-05-19T13:13:16.198Z,101056.00
2023-05-19T13:15:48.983Z,101053.81
2023-05-19T13:18:16.622Z,101050.69
2023-05-19T13:20:45.521Z,101048.19
2023-05-19T13:23:13.163Z,101047.53
2023-05-19T13:25:41.280Z,101057.19
2023-05-19T13:28:08.985Z,101055.34
2023-05-19T13:30:39.115Z,101060.44
2023-05-19T13:33:08.053Z,101051.25
2023-05-19T13:35:37.820Z,101056.28
2023-05-19T13:38:11.319Z,101055.59
2023-05-19T13:40:39.779Z,101056.16
2023-05-19T13:43:07.883Z,101053.78
2023-05-19T13:45:34.762Z,101058.31
2023-05-19T13:48:01.728Z,101061.69
2023-05-19T13:50:28.654Z,101062.59
2023-05-19T13:52:55.626Z,101060.97
2023-05-19T13:55:23.377Z,101067.94
2023-05-19T13:57:50.926Z,101068.28
2023-05-19T14:00:19.050Z,101076.66
2023-05-19T14:02:46.379Z,101073.78
2023-05-19T14:05:13.510Z,101072.16
2023-05-19T14:07:40.621Z,101063.47
2023-05-19T14:10:08.458Z,101060.75
2023-05-19T14:12:49.339Z,101065.72
2023-05-19T14:15:20.049Z,101064.97
2023-05-19T14:17:49.140Z,101063.31
2023-05-19T14:20:17.565Z,101061.28
2023-05-19T14:22:44.614Z,101059.09
2023-05-19T14:25:11.450Z,101060.13
2023-05-19T14:27:42.186Z,101058.53
2023-05-19T14:30:09.539Z,101056.69
2023-05-19T14:32:36.407Z,101052.84
2023-05-19T14:35:03.735Z,101038.56
2023-05-19T14:37:32.018Z,101038.00
2023-05-19T14:39:59.007Z,101037.44
2023-05-19T14:42:25.922Z,101038.09
2023-05-19T14:44:54.243Z,101036.25
2023-05-19T14:47:21.098Z,101037.88
2023-05-19T14:49:47.859Z,101038.28
2023-05-19T14:52:14.802Z,101040.94
2023-05-19T14:54:41.711Z,101032.00
2023-05-19T14:57:08.573Z,101051.06
2023-05-19T14:59:39.422Z,101041.44
2023-05-19T15:02:06.458Z,101039.19
2023-05-19T15:04:33.266Z,101036.22
2023-05-19T15:07:09.629Z,101037.88
2023-05-19T15:09:37.880Z,101038.50
2023-05-19T15:12:04.910Z,101037.13
2023-05-19T15:14:31.752Z,101034.59
2023-05-19T15:16:59.107Z,101028.81
2023-05-19T15:19:26.385Z,101029.59
2023-05-19T15:21:53.485Z,101032.03
2023-05-19T15:24:20.459Z,101022.63
2023-05-19T15:26:47.681Z,101021.34
2023-05-19T15:29:14.656Z,101027.28
2023-05-19T15:31:41.732Z,101027.44
2023-05-19T15:34:08.775Z,101016.53
2023-05-19T15:36:35.705Z,101017.56
2023-05-19T15:39:03.810Z,101018.75
2023-05-19T15:41:30.967Z,101012.84
2023-05-19T15:44:00.408Z,101016.47
2023-05-19T15:46:27.447Z,101014.16
2023-05-19T15:48:55.079Z,101007.69
2023-05-19T15:51:22.076Z,101019.69
2023-05-19T15:53:52.434Z,101023.31
2023-05-19T15:56:22.444Z,101026.84
2023-05-19T15:58:56.769Z,101020.59
2023-05-19T16:01:23.874Z,101019.31
2023-05-19T16:03:50.955Z,101010.34
2023-05-19T16:06:17.861Z,101010.47
2023-05-19T16:08:44.663Z,101009.53
2023-05-19T16:11:12.189Z,101013.38
2023-05-19T16:13:39.037Z,101014.34
2023-05-19T16:16:06.446Z,101011.94
2023-05-19T16:18:33.180Z,101011.91
2023-05-19T16:21:00.025Z,101005.44
2023-05-19T16:23:27.646Z,101004.16
2023-05-19T16:25:54.936Z,100999.31
2023-05-19T16:28:25.251Z,101000.94
2023-05-19T16:30:52.143Z,100996.59
2023-05-19T16:33:19.086Z,100999.66
2023-05-19T16:35:45.933Z,100996.56
2023-05-19T16:38:12.881Z,100986.44
2023-05-19T16:40:39.923Z,100987.13
2023-05-19T16:43:07.005Z,100976.03
2023-05-19T16:45:34.067Z,100982.31
2023-05-19T16:48:00.865Z,100976.38
2023-05-19T16:50:27.704Z,100971.25
2023-05-19T16:52:55.022Z,100970.59
2023-05-19T16:55:23.674Z,100965.78
2023-05-19T16:57:50.406Z,100969.94
2023-05-19T17:00:17.372Z,100966.38
2023-05-19T17:02:44.341Z,100967.16
2023-05-19T17:05:14.390Z,100961.88
2023-05-19T17:07:41.390Z,100961.50
2023-05-19T17:10:11.593Z,100956.69
2023-05-19T17:12:39.360Z,100956.06
2023-05-19T17:15:07.634Z,100958.28
2023-05-19T17:17:34.590Z,100957.94
2023-05-19T17:20:02.235Z,100964.00
2023-05-19T17:22:30.331Z,100965.03
2023-05-19T17:24:57.584Z,100967.75
2023-05-19T17:27:24.406Z,100957.91
2023-05-19T17:29:51.407Z,100954.81
2023-05-19T17:32:18.481Z,100956.69
2023-05-19T17:34:45.621Z,100958.94
2023-05-19T17:37:17.619Z,100959.09
2023-05-19T17:39:44.411Z,100961.34
2023-05-19T17:42:11.310Z,100961.47
2023-05-19T17:44:43.341Z,100965.63
2023-05-19T17:47:11.163Z,100953.44
2023-05-19T17:49:38.669Z,100960.81
2023-05-19T17:52:07.198Z,100959.53
2023-05-19T17:54:34.389Z,100975.97
2023-05-19T17:57:06.379Z,100975.47
2023-05-19T17:59:34.953Z,100966.31
2023-05-19T18:02:02.406Z,100968.56
2023-05-19T18:04:29.706Z,100969.34
2023-05-19T18:06:58.576Z,100965.34
2023-05-19T18:09:28.875Z,100967.56
2023-05-19T18:11:57.136Z,100972.03
2023-05-19T18:14:24.234Z,100970.53
2023-05-19T18:16:51.706Z,100968.44
2023-05-19T18:19:18.784Z,100965.03
2023-05-19T18:21:45.627Z,100962.31
2023-05-19T18:24:12.475Z,100960.53
2023-05-19T18:26:41.923Z,100963.88
2023-05-19T18:29:11.619Z,100969.09
2023-05-19T18:31:38.659Z,100956.53
2023-05-19T18:34:05.506Z,100957.16
2023-05-19T18:36:32.542Z,100949.00
2023-05-19T18:39:00.130Z,100957.34
2023-05-19T18:41:26.859Z,100954.81
2023-05-19T18:43:54.275Z,100954.22
2023-05-19T18:46:21.076Z,100952.59
2023-05-19T18:48:50.008Z,100960.25
2023-05-19T18:51:18.712Z,100949.38
2023-05-19T18:53:48.607Z,100948.56
2023-05-19T18:56:28.570Z,100947.78
2023-05-19T18:58:57.994Z,100950.59
2023-05-19T19:01:25.016Z,100958.25
2023-05-19T19:03:52.215Z,100958.09
2023-05-19T19:06:20.917Z,100964.63
2023-05-19T19:08:47.758Z,100960.13
2023-05-19T19:11:15.970Z,100966.97
2023-05-19T19:13:44.266Z,100966.78
2023-05-19T19:16:14.069Z,100961.16
2023-05-19T19:18:41.157Z,100952.78
2023-05-19T19:21:08.316Z,100959.34
2023-05-19T19:23:35.102Z,100964.28
2023-05-19T19:26:01.928Z,100963.59
2023-05-19T19:28:29.021Z,100966.13
2023-05-19T19:30:56.210Z,100967.84
2023-05-19T19:33:23.161Z,100967.84
2023-05-19T19:35:51.213Z,100975.00
2023-05-19T19:38:18.101Z,100972.72
2023-05-19T19:40:44.918Z,100973.09
2023-05-19T19:43:14.826Z,100977.53
2023-05-19T19:45:42.190Z,100969.50
2023-05-19T19:48:09.090Z,100982.03
2023-05-19T19:50:36.450Z,100976.72
2023-05-19T19:53:03.415Z,100975.09
2023-05-19T19:55:31.008Z,100983.88
2023-05-19T19:57:57.904Z,100978.72
2023-05-19T20:00:24.793Z,100985.38
2023-05-19T20:03:04.401Z,100978.91
2023-05-19T20:05:32.476Z,100974.91
2023-05-19T20:07:59.916Z,100985.75
2023-05-19T20:10:26.956Z,100986.34
2023-05-19T20:12:53.795Z,100982.44
2023-05-19T20:15:20.563Z,100989.56
2023-05-19T20:17:47.805Z,100983.94
2023-05-19T20:20:14.742Z,100982.81
2023-05-19T20:22:44.436Z,100981.22
2023-05-19T20:25:11.174Z,100972.84
2023-05-19T20:27:39.410Z,100970.25
2023-05-19T20:30:07.339Z,100970.25
2023-05-19T20:32:34.510Z,100972.25
2023-05-19T20:35:01.560Z,100969.63
2023-05-19T20:37:28.661Z,100963.97
2023-05-19T20:39:55.696Z,100976.25
2023-05-19T20:42:22.508Z,100971.41
2023-05-19T20:44:52.467Z,100970.88
2023-05-19T20:47:20.810Z,100968.19
2023-05-19T20:49:48.430Z,100970.38
2023-05-19T20:52:16.359Z,100975.41
2023-05-19T20:54:43.365Z,100969.47
2023-05-19T20:57:10.501Z,100962.69
2023-05-19T20:59:39.159Z,100970.09
2023-05-19T21:02:07.537Z,100963.66
2023-05-19T21:04:34.872Z,100959.13
2023-05-19T21:07:02.161Z,100967.03
2023-05-19T21:09:32.202Z,100966.84
2023-05-19T21:12:01.746Z,100968.31
2023-05-19T21:14:38.505Z,100961.88
2023-05-19T21:17:09.743Z,100971.69
2023-05-19T21:19:37.231Z,100966.34
2023-05-19T21:22:04.210Z,100971.84
2023-05-19T21:24:31.323Z,100976.75
2023-05-19T21:27:06.216Z,100974.31
2023-05-19T21:29:36.468Z,100980.88
2023-05-19T21:32:04.956Z,100981.16
2023-05-19T21:34:38.253Z,100972.00
2023-05-19T21:37:08.554Z,100973.91
2023-05-19T21:39:38.876Z,100976.91
2023-05-19T21:42:07.374Z,100977.50
2023-05-19T21:44:34.553Z,100978.91
2023-05-19T21:47:01.432Z,100976.19
2023-05-19T21:49:32.277Z,100972.88
2023-05-19T21:51:59.644Z,100979.09
2023-05-19T21:54:27.059Z,100974.28
2023-05-19T21:56:56.814Z,100972.63
2023-05-19T21:59:24.985Z,100980.56
2023-05-19T22:01:52.709Z,100973.81
2023-05-19T22:04:21.250Z,100976.00
2023-05-19T22:06:48.883Z,100981.41
2023-05-19T22:09:15.748Z,100978.78
2023-05-19T22:11:44.034Z,100983.41
2023-05-19T22:14:11.230Z,100978.28
2023-05-19T22:16:42.767Z,100975.56
2023-05-19T22:19:11.508Z,100977.16
2023-05-19T22:21:38.469Z,100977.75
2023-05-19T22:24:08.782Z,100976.97
2023-05-19T22:26:35.849Z,100971.53
2023-05-19T22:29:03.489Z,100973.94
2023-05-19T22:31:30.252Z,100984.22
2023-05-19T22:33:57.380Z,100973.38
2023-05-19T22:36:24.438Z,100978.56
2023-05-19T22:38:51.947Z,100985.97
2023-05-19T22:41:18.768Z,100982.16
2023-05-19T22:43:45.692Z,100982.66
2023-05-19T22:46:12.732Z,100978.31
2023-05-19T22:48:39.705Z,100968.09
2023-05-19T22:51:06.621Z,100967.53
2023-05-19T22:53:33.457Z,100969.44
2023-05-19T22:56:00.216Z,100972.44
2023-05-19T22:58:27.362Z,100963.75
2023-05-19T23:00:54.404Z,100965.94
2023-05-19T23:03:21.309Z,100971.91
2023-05-19T23:05:48.199Z,100963.56
2023-05-19T23:08:15.202Z,100967.63
2023-05-19T23:10:41.956Z,100960.56
2023-05-19T23:13:10.300Z,100962.75
2023-05-19T23:15:37.087Z,100965.75
2023-05-19T23:18:07.484Z,100962.31
2023-05-19T23:20:35.002Z,100962.38
2023-05-19T23:23:01.984Z,100964.56
2023-05-19T23:25:28.915Z,100957.03
2023-05-19T23:27:55.843Z,100955.91
2023-05-19T23:30:22.902Z,100953.19
2023-05-19T23:32:52.253Z,100940.78
2023-05-19T23:35:20.124Z,100948.41
2023-05-19T23:37:47.081Z,100938.25
2023-05-19T23:40:14.259Z,100941.59
2023-05-19T23:42:41.818Z,100947.13
2023-05-19T23:45:10.109Z,100946.63
2023-05-19T23:47:38.132Z,100940.75
2023-05-19T23:50:05.505Z,100939.72
2023-05-19T23:52:35.053Z,100945.19
2023-05-19T23:55:03.690Z,100936.06
2023-05-19T23:57:33.408Z,100946.09
